Latest Weather Observations for Argyle

IDW60801

Issued at 4:35 pm WST Wednesday 27 August 2014 (issued every 30 minutes, with the page automatically refreshed every 10 minutes)

About weather observations | Map of weather stations | Latest weather observations for WA | Other Formats
Station Details ID: 002064 Name: ARGYLE AERODROME Lat: -16.64 Lon: 128.45 Height: 164.0 m
Data from the previous 72 hours. | See also: Recent months at Argyle
Date/Time
WST
Temp
°C
App
Temp
°C
Dew
Point
Rel
Hum
%
Delta-T
°C
Wind Press
QNH
hPa
Press
MSL
hPa
Rain
since 9 am
mm
Dir
 
Spd
km/h
Gust
km/h
Spd
kts
Gust
kts
27/04:30pm 29.5 23.2 -15.7 4 16.5 E 15 24 8 13 1014.5 - 0.0
27/04:00pm 30.3 23.4 -13.2 5 16.7 E 19 28 10 15 1014.5 - 0.0
27/03:30pm 30.3 23.8 -13.2 5 16.7 E 17 32 9 17 1014.5 - 0.0
27/03:00pm 30.3 23.9 -11.3 6 16.5 E 17 28 9 15 1014.5 1013.6 0.0
27/02:30pm 30.4 23.3 -13.6 5 16.8 E 20 32 11 17 1014.5 - 0.0
27/02:00pm 30.4 22.6 -12.6 5 16.7 E 24 35 13 19 1014.8 - 0.0
27/01:30pm 30.1 22.7 -12.3 5 16.5 ENE 22 32 12 17 1015.1 - 0.0
27/01:00pm 30.6 24.1 -12.6 5 16.8 E 17 32 9 17 1015.6 - 0.0
27/12:30pm 30.0 23.2 -9.5 7 16.1 ESE 20 32 11 17 1016.0 - 0.0
27/12:00pm 30.3 23.1 -9.8 7 16.3 ENE 22 32 12 17 1016.5 1015.6 0.0
27/11:30am 29.3 22.4 -10.2 7 15.8 E 20 32 11 17 1017.3 - 0.0
27/11:00am 28.2 20.1 -11.1 7 15.3 E 26 37 14 20 1017.9 - 0.0
27/10:30am 28.1 21.2 -10.8 7 15.2 E 20 32 11 17 1018.5 - 0.0
27/10:00am 27.4 20.6 -9.9 8 14.7 E 20 32 11 17 1019.1 - 0.0
27/09:30am 26.5 19.7 -9.7 8 14.2 E 20 30 11 16 1019.4 - 0.0
27/09:00am 25.8 19.0 -9.6 9 13.8 E 20 35 11 19 1019.5 1018.6 0.0
27/08:30am 24.5 17.9 -6.8 12 12.7 E 20 28 11 15 1019.8 - 0.0
27/08:00am 23.4 16.0 -7.9 12 12.3 ENE 24 32 13 17 1019.6 - 0.0
27/07:54am 23.3 15.2 -7.0 12 12.1 E 28 32 15 17 1019.6 - 0.0
27/07:30am 22.3 18.2 -3.4 17 10.9 ENE 9 13 5 7 1019.4 - 0.0
27/07:00am 20.7 17.2 -3.1 20 10.0 ENE 6 9 3 5 1019.0 - 0.0
27/06:30am 17.9 15.6 -2.3 25 8.4 CALM 0 0 0 0 1018.3 - 0.0
27/06:00am 16.0 13.9 -0.5 32 7.0 E 0 0 0 0 1017.7 1016.9 0.0
27/05:30am 15.9 12.5 -2.2 29 7.4 E 6 7 3 4 1017.2 - 0.0
27/05:00am 16.7 12.8 -1.4 29 7.6 E 9 11 5 6 1016.9 - 0.0
27/04:30am 17.0 12.6 -2.8 25 8.1 E 11 13 6 7 1016.5 - 0.0
27/04:00am 17.2 12.3 -3.3 24 8.3 E 13 15 7 8 1016.2 - 0.0
27/03:30am 17.3 12.4 -3.0 25 8.3 E 13 17 7 9 1016.1 - 0.0
27/03:00am 17.8 13.5 -2.0 26 8.3 E 11 13 6 7 1016.2 1015.3 0.0
27/02:30am 17.8 13.3 -2.9 24 8.5 E 11 13 6 7 1016.4 - 0.0
27/02:00am 18.6 14.0 -4.2 21 9.2 E 11 15 6 8 1016.3 - 0.0
27/01:30am 17.8 13.8 -2.0 26 8.3 E 9 11 5 6 1016.4 - 0.0
27/01:00am 19.2 14.6 -3.8 21 9.4 ENE 11 15 6 8 1016.6 - 0.0
27/12:30am 19.2 14.6 -3.8 21 9.4 ENE 11 11 6 6 1016.6 - 0.0
27/12:00am 19.4 14.8 -3.8 20 9.5 ENE 11 13 6 7 1016.8 1015.9 0.0
 
Date/Time
WST
Temp
°C
App
Temp
°C
Dew
Point
Rel
Hum
%
Delta-T
°C
Wind Press
QNH
hPa
Press
MSL
hPa
Rain
since 9 am
mm
Dir
 
Spd
km/h
Gust
km/h
Spd
kts
Gust
kts
26/11:30pm 20.0 15.4 -4.2 19 9.9 ENE 11 13 6 7 1016.9 - 0.0
26/11:00pm 19.5 15.4 -3.1 21 9.4 E 9 11 5 6 1016.9 - 0.0
26/10:30pm 19.9 15.6 -4.5 19 9.9 E 9 11 5 6 1016.9 - 0.0
26/10:00pm 20.1 15.9 -4.0 19 9.9 E 9 11 5 6 1016.9 - 0.0
26/09:30pm 20.5 16.0 -3.5 19 10.0 ESE 11 13 6 7 1016.8 - 0.0
26/09:00pm 21.8 17.6 -4.1 17 10.8 E 9 11 5 6 1016.8 1015.9 0.0
26/08:30pm 22.1 17.8 -4.8 16 11.1 ESE 9 13 5 7 1016.8 - 0.0
26/08:00pm 24.1 18.8 -6.8 12 12.5 SE 13 15 7 8 1016.6 - 0.0
26/07:30pm 23.6 19.2 -5.4 14 12.0 SE 9 13 5 7 1016.4 - 0.0
26/07:00pm 24.5 19.7 -6.1 12 12.6 SSE 11 15 6 8 1016.1 - 0.0
26/06:30pm 24.3 20.0 -4.5 14 12.2 SE 9 13 5 7 1015.8 - 0.0
26/06:00pm 24.8 21.1 -3.2 15 12.2 ESE 7 11 4 6 1015.3 1014.4 0.0
26/05:30pm 26.8 22.0 -6.5 10 13.9 SE 11 15 6 8 1015.0 - 0.0
26/05:00pm 28.6 23.8 -6.5 9 14.9 ESE 11 15 6 8 1014.8 - 0.0
26/04:30pm 29.4 24.3 -9.7 7 15.8 ESE 11 17 6 9 1014.7 - 0.0
26/04:00pm 30.1 23.7 -11.4 6 16.4 E 17 32 9 17 1014.8 - 0.0
26/03:30pm 30.2 24.3 -9.3 7 16.2 E 15 26 8 14 1014.8 - 0.0
26/03:00pm 30.7 23.9 -12.0 5 16.8 ESE 19 32 10 17 1014.9 1014.0 0.0
26/02:30pm 30.2 25.1 -9.3 7 16.2 NE 11 17 6 9 1015.1 - 0.0
26/02:00pm 30.5 23.9 -9.6 7 16.4 E 19 30 10 16 1015.3 - 0.0
26/01:30pm 29.8 24.0 -8.8 7 15.9 ENE 15 20 8 11 1015.6 - 0.0
26/01:00pm 29.5 22.9 -9.3 7 15.8 ESE 19 30 10 16 1016.0 - 0.0
26/12:30pm 29.2 22.5 -8.4 8 15.5 E 20 35 11 19 1016.6 - 0.0
26/12:00pm 29.5 23.4 -7.9 8 15.6 E 17 35 9 19 1017.1 1016.3 0.0
26/11:30am 28.4 22.0 -7.3 9 14.9 ENE 19 26 10 14 1017.8 - 0.0
26/11:00am 28.8 22.1 -8.6 8 15.3 E 20 35 11 19 1018.5 - 0.0
26/10:30am 28.2 19.2 -8.2 8 14.9 E 32 39 17 21 1019.3 - 0.0
26/10:00am 27.9 19.7 -7.9 9 14.7 E 28 48 15 26 1019.6 - 0.0
26/09:58am 27.7 19.4 -8.7 8 14.7 E 28 48 15 26 1019.5 - 0.0
26/09:30am 27.1 21.6 -5.7 11 13.9 SSE 15 22 8 12 1019.9 - 0.0
26/09:00am 25.4 19.1 -5.8 12 13.0 ESE 19 28 10 15 1020.1 1019.2 0.0
26/08:30am 24.5 18.6 -5.7 13 12.5 ESE 17 26 9 14 1020.3 - 0.0
26/08:00am 23.2 16.7 -6.2 13 11.9 ESE 20 26 11 14 1020.2 - 0.0
26/07:30am 21.6 15.7 -5.2 16 10.9 ESE 17 26 9 14 1020.2 - 0.0
26/07:00am 20.2 15.6 -4.3 19 10.0 E 11 15 6 8 1019.9 - 0.0
26/06:30am 19.0 14.5 -3.4 21 9.2 E 11 13 6 7 1019.5 - 0.0
26/06:00am 17.2 13.2 -2.5 26 8.1 E 9 13 5 7 1019.1 1018.2 0.0
26/05:30am 16.9 12.8 -2.7 26 8.0 ENE 9 13 5 7 1018.9 - 0.0
26/05:00am 16.7 12.3 -2.6 26 7.9 E 11 11 6 6 1018.5 - 0.0
26/04:30am 17.1 12.7 -2.7 25 8.1 E 11 15 6 8 1018.3 - 0.0
26/04:00am 17.2 12.7 -2.9 25 8.2 E 11 13 6 7 1018.2 - 0.0
26/03:30am 17.7 13.3 -2.7 25 8.4 E 11 15 6 8 1018.0 - 0.0
26/03:00am 17.8 13.4 -2.5 25 8.4 E 11 15 6 8 1017.8 1017.0 0.0
26/02:30am 18.3 13.9 -2.7 24 8.7 E 11 15 6 8 1017.8 - 0.0
26/02:00am 18.2 13.9 -1.6 26 8.4 E 11 15 6 8 1017.8 - 0.0
26/01:30am 18.5 14.2 -1.8 25 8.6 E 11 13 6 7 1017.9 - 0.0
26/01:00am 19.4 15.1 -2.0 23 9.1 ENE 11 13 6 7 1017.9 - 0.0
26/12:30am 19.9 15.5 -2.2 22 9.4 ENE 11 13 6 7 1018.1 - 0.0
26/12:00am 19.9 15.5 -2.2 22 9.4 E 11 15 6 8 1018.1 1017.3 0.0
 
Date/Time
WST
Temp
°C
App
Temp
°C
Dew
Point
Rel
Hum
%
Delta-T
°C
Wind Press
QNH
hPa
Press
MSL
hPa
Rain
since 9 am
mm
Dir
 
Spd
km/h
Gust
km/h
Spd
kts
Gust
kts
25/11:30pm 20.1 15.9 -1.0 24 9.2 ENE 11 13 6 7 1018.2 - 0.0
25/11:00pm 20.5 16.7 -0.6 24 9.3 E 9 13 5 7 1018.3 - 0.0
25/10:30pm 20.6 16.6 -2.0 22 9.7 E 9 13 5 7 1018.3 - 0.0
25/10:00pm 20.7 16.9 -0.5 24 9.4 E 9 11 5 6 1018.2 - 0.0
25/09:30pm 21.0 17.2 -0.7 23 9.6 E 9 13 5 7 1018.0 - 0.0
25/09:00pm 22.1 18.1 -2.0 20 10.5 E 9 13 5 7 1017.9 1017.1 0.0
25/08:30pm 23.1 18.7 -2.8 17 11.2 ESE 11 13 6 7 1017.8 - 0.0
25/08:00pm 23.1 19.3 -0.6 20 10.7 ESE 9 9 5 5 1017.7 - 0.0
25/07:30pm 25.2 20.2 -4.1 14 12.6 SE 13 17 7 9 1017.4 - 0.0
25/07:00pm 25.7 20.5 -2.8 15 12.6 SE 15 19 8 10 1017.0 - 0.0
25/06:30pm 25.8 20.9 -3.0 15 12.7 SSE 13 17 7 9 1016.8 - 0.0
25/06:00pm 26.5 22.1 -2.6 14 13.0 SSE 11 17 6 9 1016.4 1015.5 0.0
25/05:30pm 27.7 22.8 -3.7 12 13.9 SE 13 17 7 9 1016.0 - 0.0
25/05:00pm 29.0 22.8 -4.6 11 14.8 SE 19 26 10 14 1015.6 - 0.0
25/04:30pm 29.9 24.1 -5.1 10 15.4 SE 17 26 9 14 1015.3 - 0.0
25/04:00pm 30.4 23.9 -5.8 9 15.8 SE 20 26 11 14 1015.2 - 0.0
25/03:30pm 30.7 24.3 -4.8 10 15.8 SE 20 33 11 18 1015.1 - 0.0
25/03:00pm 31.1 24.5 -6.5 8 16.3 ESE 20 32 11 17 1015.2 1014.3 0.0
25/02:30pm 31.3 25.5 -4.6 9 16.1 SSE 17 28 9 15 1015.5 - 0.0
25/02:00pm 31.1 24.9 -5.3 9 16.1 SE 19 33 10 18 1015.8 - 0.0
25/01:30pm 31.7 25.5 -5.0 9 16.4 SE 19 33 10 18 1016.2 - 0.0
25/01:00pm 30.8 24.6 -4.5 10 15.8 SE 19 33 10 18 1016.6 - 0.0
25/12:30pm 30.3 24.0 -5.7 9 15.7 E 19 32 10 17 1017.1 - 0.0
25/12:00pm 30.0 23.2 -5.5 9 15.5 ESE 22 33 12 18 1017.9 1017.1 0.0
25/11:30am 29.9 23.6 -5.9 9 15.5 ESE 19 30 10 16 1018.5 - 0.0
25/11:00am 30.0 24.9 -5.0 10 15.4 SE 13 20 7 11 1019.3 - 0.0
25/10:30am 28.8 21.5 -6.0 10 14.9 E 24 37 13 20 1020.0 - 0.0
25/10:00am 28.5 20.4 -6.5 9 14.8 E 28 41 15 22 1020.6 - 0.0
25/09:30am 28.1 20.4 -6.6 10 14.6 E 26 39 14 21 1021.1 - 0.0
25/09:00am 26.6 18.5 -6.8 10 13.8 E 28 37 15 20 1021.3 1020.4 0.0
25/08:47am 26.9 18.4 -7.0 10 14.0 E 30 43 16 23 1021.1 - 0.0
25/08:30am 25.5 20.3 -2.9 15 12.5 SE 15 24 8 13 1021.5 - 0.0
25/08:00am 24.4 20.1 -1.6 18 11.6 ESE 11 17 6 9 1021.5 - 0.0
25/07:30am 23.3 19.2 -0.3 21 10.7 ESE 11 17 6 9 1021.2 - 0.0
25/07:00am 22.6 19.8 -0.2 22 10.3 SE 4 7 2 4 1021.0 - 0.0
25/06:30am 20.3 18.4 2.6 31 8.3 SSE 2 7 1 4 1020.5 - 0.0
25/06:00am 18.1 15.1 1.1 32 7.6 W 6 7 3 4 1020.3 1019.4 0.0
25/05:30am 18.0 14.8 0.6 31 7.7 W 7 9 4 5 1019.6 - 0.0
25/05:00am 18.1 14.8 0.4 30 7.8 W 7 9 4 5 1019.2 - 0.0
25/04:30am 18.8 15.6 0.6 29 8.1 WNW 7 7 4 4 1018.8 - 0.0
25/04:00am 18.9 16.9 0.1 28 8.3 CALM 0 0 0 0 1018.4 - 0.0
25/03:30am 19.4 17.1 0.7 28 8.4 N 2 6 1 3 1018.2 - 0.0
25/03:00am 19.5 16.3 -0.2 26 8.7 N 6 7 3 4 1017.9 1017.1 0.0
25/02:30am 19.2 15.4 -0.8 26 8.7 N 9 9 5 5 1017.8 - 0.0
25/02:00am 20.8 16.7 0.1 25 9.3 E 11 17 6 9 1017.7 - 0.0
25/01:30am 22.3 16.9 -1.6 20 10.5 SE 17 26 9 14 1017.5 - 0.0
25/01:00am 23.1 17.1 -1.9 19 11.0 SE 20 28 11 15 1017.5 - 0.0
25/12:30am 24.4 18.3 -2.4 17 11.8 SE 20 32 11 17 1017.5 - 0.0
25/12:00am 25.0 18.9 -2.7 16 12.2 SE 20 28 11 15 1017.7 1016.9 0.0
 
Date/Time
WST
Temp
°C
App
Temp
°C
Dew
Point
Rel
Hum
%
Delta-T
°C
Wind Press
QNH
hPa
Press
MSL
hPa
Rain
since 9 am
mm
Dir
 
Spd
km/h
Gust
km/h
Spd
kts
Gust
kts
24/11:30pm 25.2 19.1 -2.7 15 12.3 SE 20 33 11 18 1017.8 - 0.0
24/11:00pm 25.2 19.6 -2.7 15 12.3 SE 17 24 9 13 1017.8 - 0.0
24/10:30pm 23.9 19.3 -1.4 18 11.3 ESE 13 20 7 11 1018.0 - 0.0
24/10:00pm 24.3 19.2 -1.7 18 11.6 SE 15 19 8 10 1018.1 - 0.0
24/09:30pm 23.9 19.3 -1.4 18 11.3 SE 13 17 7 9 1018.2 - 0.0
24/09:00pm 24.9 20.2 -2.0 17 12.0 SE 13 17 7 9 1018.1 1017.3 0.0
24/08:30pm 24.1 20.0 -0.5 19 11.2 SE 11 13 6 7 1018.0 - 0.0
24/08:00pm 25.8 21.6 -1.2 17 12.3 SE 11 17 6 9 1017.9 - 0.0
24/07:30pm 26.0 21.3 -1.6 16 12.5 SSE 13 17 7 9 1017.7 - 0.0
24/07:00pm 25.4 21.6 -0.8 18 12.0 SSE 9 13 5 7 1017.4 - 0.0
24/06:30pm 25.1 21.5 0.9 20 11.4 SE 9 11 5 6 1016.9 - 0.0
24/06:00pm 26.3 22.7 0.8 19 12.1 SSE 9 11 5 6 1016.5 1015.6 0.0
24/05:30pm 28.1 22.9 -2.6 13 13.9 SE 15 20 8 11 1016.1 - 0.0
24/05:00pm 29.5 23.4 -4.2 11 15.0 ESE 19 24 10 13 1015.7 - 0.0

Other Formats:

Comma delimited format used in spreadsheet applications
http://www.bom.gov.au/fwo/IDW60801/IDW60801.94217.axf

JavaScript Object Notation format (JSON) in row-major order
http://www.bom.gov.au/fwo/IDW60801/IDW60801.94217.json